Latest Weather Observations for PWS B

IDT60801

Issued at 7:51 am EST Sunday 14 August 2022 (issued every 10 minutes, with the page automatically refreshed every 10 minutes)

About weather observations | Map of weather stations | Latest weather observations for TAS | Other Formats
Station Details ID: 250093 Name: TAS PARKS WILDLIFE PORTABLE B Lat: -42.64 Lon: 145.91 Height: 35.0 m

Portable automatic weather stations (PAWS) are operated by other organisations, such as Fire and Emergency Services, and are included here by agreement. Portable stations may be deployed to a location for a short period and their location may be subject to change without notice. Wind observations from these stations are provided from heights of either three (3) or ten (10) metres above ground level (AGL).

Data from the previous 72 hours. | See also: Recent months for locations in Tasmania
Date/Time
EST
Temp
°C
App
Temp
°C
Dew
Point
°C
Rel
Hum
%
Delta-T
°C
Wind Press
QNH
hPa
Press
MSL
hPa
Rain since
9am
mm
Dir  Spd
km/h
Gust
km/h
Spd
kts
Gust
kts
14/07:40am 12.0 10.2 7.3 73 2.3 N 6 7 3 4 - - 0.0
14/07:30am 12.2 10.1 6.8 69 2.6 N 7 11 4 6 - - 0.0
14/07:20am 12.2 10.3 6.8 69 2.6 N 6 9 3 5 - - 0.0
14/07:10am 12.1 10.6 6.8 70 2.5 N 4 6 2 3 - - 0.0
14/07:00am 12.3 10.2 6.8 69 2.6 N 7 11 4 6 - - 0.0
14/06:50am 12.1 10.2 6.8 70 2.5 N 6 7 3 4 - - 0.0
14/06:40am 12.1 10.3 7.0 71 2.4 NNW 6 9 3 5 - - 0.0
14/06:30am 12.1 10.0 6.8 70 2.5 N 7 13 4 7 - - 0.0
14/06:20am 11.9 9.9 7.1 72 2.3 N 7 11 4 6 - - 0.0
14/06:10am 11.8 10.0 7.1 73 2.3 N 6 7 3 4 - - 0.0
14/06:00am 11.9 10.2 7.4 74 2.2 N 6 9 3 5 - - 0.0
14/05:50am 11.9 10.2 7.7 75 2.0 N 6 11 3 6 - - 0.0
14/05:40am 11.9 10.0 7.6 75 2.1 N 7 9 4 5 - - 0.0
14/05:30am 12.0 10.3 7.4 73 2.2 N 6 7 3 4 - - 0.0
14/05:20am 12.1 10.4 7.4 73 2.3 N 6 9 3 5 - - 0.0
14/05:10am 12.1 10.4 7.4 73 2.3 NNW 6 7 3 4 - - 0.0
14/05:00am 12.1 10.1 7.2 72 2.4 N 7 11 4 6 - - 0.0
14/04:50am 12.0 10.0 7.3 73 2.3 N 7 11 4 6 - - 0.0
14/04:40am 11.8 10.0 7.2 73 2.2 N 6 9 3 5 - - 0.0
14/04:30am 11.4 10.0 7.2 75 2.0 N 4 6 2 3 - - 0.0
14/04:20am 11.4 10.0 7.1 75 2.1 N 4 6 2 3 - - 0.0
14/04:10am 11.3 9.5 7.3 76 1.9 N 6 7 3 4 - - 0.0
14/04:00am 11.1 9.7 7.3 77 1.8 N 4 7 2 4 - - 0.0
14/03:50am 11.0 9.2 7.2 77 1.8 N 6 6 3 3 - - 0.0
14/03:40am 10.9 8.9 7.2 78 1.8 N 7 9 4 5 - - 0.0
14/03:30am 10.6 8.9 7.4 80 1.5 N 6 7 3 4 - - 0.0
14/03:20am 10.5 8.6 7.5 82 1.4 NNW 7 9 4 5 - - 0.0
14/03:10am 10.3 8.6 7.5 83 1.3 N 6 7 3 4 - - 0.0
14/03:00am 10.2 8.5 7.5 83 1.3 N 6 7 3 4 - - 0.0
14/02:50am 10.1 8.4 7.5 84 1.2 N 6 7 3 4 - - 0.0
14/02:40am 10.2 8.2 7.3 82 1.4 NNW 7 9 4 5 - - 0.0
14/02:30am 10.0 8.2 7.2 83 1.3 N 6 7 3 4 - - 0.0
14/02:20am 9.9 8.1 7.1 83 1.3 N 6 7 3 4 - - 0.0
14/02:10am 9.8 7.8 7.0 83 1.3 N 7 9 4 5 - - 0.0
14/02:00am 9.9 7.9 7.0 82 1.4 N 7 9 4 5 - - 0.0
14/01:50am 9.9 7.9 6.9 81 1.4 N 7 9 4 5 - - 0.0
14/01:40am 9.8 7.9 6.7 81 1.5 N 6 7 3 4 - - 0.0
14/01:30am 9.7 7.8 6.7 81 1.4 N 6 7 3 4 - - 0.0
14/01:20am 9.6 8.1 6.7 82 1.4 N 4 4 2 2 - - 0.0
14/01:10am 9.9 8.0 6.6 80 1.5 N 6 6 3 3 - - 0.0
14/01:00am 9.9 8.3 6.5 79 1.6 NNW 4 6 2 3 - - 0.0
14/12:50am 10.1 8.2 6.5 78 1.7 N 6 7 3 4 - - 0.0
14/12:40am 9.9 7.9 6.3 78 1.7 N 6 7 3 4 - - 0.0
14/12:30am 9.7 7.5 6.3 79 1.6 N 7 9 4 5 - - 0.0
14/12:20am 9.6 7.6 6.3 80 1.5 N 6 7 3 4 - - 0.0
14/12:10am 9.7 7.7 6.3 79 1.6 N 6 7 3 4 - - 0.0
14/12:00am 10.0 8.0 6.3 78 1.7 N 6 7 3 4 - - 0.0
 
Date/Time
EST
Temp
°C
App
Temp
°C
Dew
Point
°C
Rel
Hum
%
Delta-T
°C
Wind Press
QNH
hPa
Press
MSL
hPa
Rain since
9am
mm
Dir  Spd
km/h
Gust
km/h
Spd
kts
Gust
kts
13/11:50pm 10.2 8.2 6.2 76 1.9 N 6 7 3 4 - - 0.0
13/11:40pm 10.2 8.2 6.2 76 1.9 N 6 6 3 3 - - 0.0
13/11:30pm 10.2 8.2 6.2 76 1.9 N 6 7 3 4 - - 0.0
13/11:20pm 10.7 8.5 6.3 74 2.1 N 7 9 4 5 - - 0.0
13/11:10pm 10.7 8.5 6.1 73 2.1 N 7 9 4 5 - - 0.0
13/11:00pm 10.2 8.1 5.9 74 2.0 N 6 9 3 5 - - 0.0
13/10:50pm 9.1 7.0 5.8 80 1.5 N 6 7 3 4 - - 0.0
13/10:40pm 9.0 7.4 6.3 83 1.2 N 4 6 2 3 - - 0.0
13/10:30pm 9.2 7.6 6.5 83 1.3 N 4 6 2 3 - - 0.0
13/10:20pm 9.6 8.0 6.5 81 1.4 N 4 6 2 3 - - 0.0
13/10:10pm 10.8 9.2 6.5 75 2.0 N 4 7 2 4 - - 0.0
13/10:00pm 11.1 9.5 6.3 72 2.3 N 4 7 2 4 - - 0.0
13/09:50pm 11.2 9.2 6.4 72 2.3 N 6 7 3 4 - - 0.0
13/09:40pm 11.5 9.5 6.3 70 2.4 N 6 7 3 4 - - 0.0
13/09:30pm 11.6 9.7 6.5 71 2.4 N 6 11 3 6 - - 0.0
13/09:20pm 11.7 9.1 6.3 69 2.5 NNW 9 11 5 6 - - 0.0
13/09:10pm 11.5 9.3 6.4 71 2.4 N 7 13 4 7 - - 0.0
13/09:00pm 11.4 8.5 6.7 73 2.2 N 11 15 6 8 - - 0.0
13/08:50pm 11.3 8.8 6.7 73 2.2 N 9 11 5 6 - - 0.0
13/08:40pm 11.0 9.1 6.8 75 2.0 N 6 9 3 5 - - 0.0
13/08:30pm 11.0 9.5 7.0 76 1.9 N 4 7 2 4 - - 0.0
13/08:20pm 11.2 9.2 7.0 75 2.0 N 7 11 4 6 - - 0.0
13/08:10pm 11.2 9.3 6.8 74 2.1 N 6 11 3 6 - - 0.0
13/08:00pm 11.1 9.2 6.9 75 2.0 N 6 9 3 5 - - 0.0
13/07:50pm 11.0 9.1 6.9 76 1.9 N 6 9 3 5 - - 0.0
13/07:40pm 10.7 8.9 7.0 78 1.8 N 6 9 3 5 - - 0.0
13/07:30pm 10.8 9.5 7.5 80 1.6 N 4 6 2 3 - - 0.0
13/07:20pm 11.3 9.5 7.2 76 2.0 N 6 7 3 4 - - 0.0
13/07:10pm 11.0 9.7 7.6 79 1.6 N 4 4 2 2 - - 0.0
13/07:00pm 11.2 9.9 7.8 79 1.7 N 4 6 2 3 - - 0.0
13/06:50pm 11.5 10.2 7.8 78 1.8 N 4 6 2 3 - - 0.0
13/06:40pm 11.7 10.3 7.4 75 2.1 N 4 6 2 3 - - 0.0
13/06:30pm 11.5 10.2 7.6 77 1.9 N 4 6 2 3 - - 0.0
13/06:20pm 11.6 10.3 7.6 76 1.9 N 4 6 2 3 - - 0.0
13/06:10pm 11.9 10.6 7.5 74 2.1 N 4 4 2 2 - - 0.0
13/06:00pm 12.0 10.6 7.3 73 2.3 NNW 4 7 2 4 - - 0.0
13/05:50pm 12.0 11.1 7.6 74 2.1 N 2 4 1 2 - - 0.0
13/05:40pm 12.6 11.3 7.5 71 2.5 NNW 4 6 2 3 - - 0.0
13/05:30pm 12.8 11.1 7.6 70 2.5 N 6 7 3 4 - - 0.0
13/05:20pm 13.1 11.4 7.6 69 2.7 N 6 7 3 4 - - 0.0
13/05:10pm 13.7 12.4 7.5 66 3.0 N 4 6 2 3 - - 0.0
13/05:00pm 14.4 12.7 7.6 63 3.4 N 6 6 3 3 - - 0.0
13/04:50pm 14.7 13.0 7.4 61 3.6 NNW 6 7 3 4 - - 0.0
13/04:40pm 14.6 12.8 7.2 61 3.6 NNW 6 9 3 5 - - 0.0
13/04:30pm 14.7 12.9 7.0 60 3.8 N 6 9 3 5 - - 0.0
13/04:20pm 14.9 13.0 7.4 61 3.7 NNW 7 9 4 5 - - 0.0
13/04:10pm 15.1 13.3 7.0 58 4.0 N 6 9 3 5 - - 0.0
13/04:00pm 15.4 13.5 6.9 57 4.2 NNW 6 7 3 4 - - 0.0
13/03:50pm 15.5 13.5 6.9 56 4.2 NNW 7 9 4 5 - - 0.0
13/03:40pm 15.6 13.5 6.8 56 4.3 NNW 7 9 4 5 - - 0.0
13/03:30pm 15.9 13.9 6.1 52 4.7 NNW 6 7 3 4 - - 0.0
13/03:20pm 15.7 13.8 6.8 55 4.4 NNW 6 7 3 4 - - 0.0
13/03:10pm 15.5 13.4 6.6 55 4.3 NNW 7 9 4 5 - - 0.0
13/03:00pm 15.7 13.7 6.9 56 4.3 NNW 7 11 4 6 - - 0.0
13/02:50pm 15.9 13.9 7.1 56 4.4 NNW 7 9 4 5 - - 0.0
13/02:40pm 15.8 13.7 6.6 54 4.5 NNW 7 11 4 6 - - 0.0
13/02:30pm 16.0 14.1 6.7 54 4.6 NNW 6 6 3 3 - - 0.0
13/02:20pm 16.3 14.8 7.0 54 4.6 NNW 4 7 2 4 - - 0.0
13/02:10pm 16.0 14.0 6.3 52 4.7 N 6 7 3 4 - - 0.0
13/02:00pm 15.5 14.1 7.3 58 4.1 NNW 4 7 2 4 - - 0.0
13/01:50pm 14.9 13.3 6.3 56 4.2 N 4 6 2 3 - - 0.0
13/01:40pm 14.6 12.6 6.1 56 4.1 N 6 6 3 3 - - 0.0
13/01:30pm 14.1 12.2 6.6 60 3.6 NNW 6 7 3 4 - - 0.0
13/01:20pm 13.8 11.8 7.1 64 3.3 N 7 9 4 5 - - 0.0
13/01:10pm 13.8 12.0 7.1 64 3.3 N 6 6 3 3 - - 0.0
13/01:00pm 13.8 11.9 6.6 62 3.5 NNW 6 9 3 5 - - 0.0
13/12:50pm 14.5 12.1 7.2 61 3.6 NNW 9 13 5 7 - - 0.0
13/12:40pm 15.0 13.2 7.9 62 3.5 N 7 9 4 5 - - 0.0
13/12:30pm 15.1 13.4 7.7 61 3.7 N 6 9 3 5 - - 0.0
13/12:20pm 15.0 13.7 7.8 62 3.6 N 4 7 2 4 - - 0.0
13/12:10pm 14.3 12.9 7.1 62 3.5 N 4 7 2 4 - - 0.0
13/12:00pm 14.0 12.3 7.5 65 3.2 N 6 7 3 4 - - 0.0
13/11:50am 13.5 12.3 8.1 70 2.7 NNW 4 6 2 3 - - 0.0
13/11:40am 13.0 11.6 8.7 75 2.2 N 6 7 3 4 - - 0.0
13/11:30am 12.4 11.4 9.0 80 1.7 N 4 6 2 3 - - 0.0
13/11:20am 11.1 9.7 9.0 87 1.0 NNW 6 6 3 3 - - 0.0
13/11:10am 10.5 9.1 8.9 90 0.8 N 6 6 3 3 - - 0.0
13/11:00am 10.0 9.0 8.8 92 0.6 N 4 6 2 3 - - 0.0
13/10:50am 8.9 7.7 8.2 95 0.3 N 4 4 2 2 - - 0.0
13/10:40am 7.9 6.5 7.4 97 0.2 N 4 6 2 3 - - 0.0
13/10:30am 6.9 5.3 6.5 97 0.2 N 4 6 2 3 - - 0.0
13/10:20am 6.1 4.4 5.8 98 0.1 N 4 6 2 3 - - 0.0
13/10:10am 5.9 4.5 5.6 98 0.1 N 2 4 1 2 - - 0.0
13/10:00am 5.4 3.9 5.1 98 0.1 N 2 4 1 2 - - 0.0
13/09:50am 5.1 3.2 4.9 99 0.1 N 4 4 2 2 - - 0.0
13/09:40am 4.5 2.5 4.2 98 0.1 N 4 6 2 3 - - 0.0
13/09:30am 4.0 1.9 3.8 99 0.1 N 4 4 2 2 - - 0.0
13/09:20am 3.9 2.1 3.7 99 0.1 N 2 4 1 2 - - 0.0
13/09:10am 3.5 1.7 3.3 99 0.1 N 2 4 1 2 - - 0.0
13/09:00am 2.9 1.0 2.7 99 0.1 N 2 4 1 2 - - 0.0
13/08:50am 2.5 0.5 2.3 99 0.1 N 2 4 1 2 - - 0.0
13/08:40am 2.2 0.1 2.0 99 0.1 N 2 4 1 2 - - 0.0
13/08:30am 1.6 -0.2 1.4 99 0.1 CALM 0 2 0 1 - - 0.0
13/08:20am 1.3 -0.5 1.1 99 0.1 CALM 0 2 0 1 - - 0.0
13/08:10am 1.1 -1.1 0.8 98 0.1 N 2 4 1 2 - - 0.0
13/08:00am 0.9 -1.4 0.7 99 0.1 N 2 4 1 2 - - 0.0
13/07:50am 0.8 -1.5 0.6 99 0.1 N 2 2 1 1 - - 0.0
13/07:40am 0.8 -1.1 0.6 99 0.1 CALM 0 2 0 1 - - 0.0
13/07:30am 0.8 -1.5 0.5 98 0.1 N 2 4 1 2 - - 0.0
13/07:20am 0.8 -1.5 0.5 98 0.1 NNW 2 2 1 1 - - 0.0
13/07:10am 0.8 -1.5 0.5 98 0.1 N 2 4 1 2 - - 0.0
13/07:00am 0.7 -1.6 0.5 99 0.1 N 2 4 1 2 - - 0.0
13/06:50am 0.6 -1.7 0.4 99 0.1 N 2 4 1 2 - - 0.0
13/06:40am 0.6 -1.7 0.4 99 0.1 N 2 4 1 2 - - 0.0
13/06:30am 0.7 -1.6 0.5 99 0.1 N 2 4 1 2 - - 0.0
13/06:20am 0.8 -1.5 0.6 99 0.1 N 2 4 1 2 - - 0.0
13/06:10am 0.8 -1.5 0.6 99 0.1 N 2 2 1 1 - - 0.0
13/06:00am 0.8 -1.5 0.6 99 0.1 N 2 4 1 2 - - 0.0
13/05:50am 0.9 -1.4 0.6 98 0.1 N 2 4 1 2 - - 0.0
13/05:40am 1.0 -1.2 0.8 99 0.1 N 2 2 1 1 - - 0.0
13/05:30am 1.1 -1.1 0.9 99 0.1 N 2 4 1 2 - - 0.0
13/05:20am 1.3 -0.5 1.1 99 0.1 CALM 0 2 0 1 - - 0.0
13/05:10am 1.6 -0.5 1.4 99 0.1 N 2 4 1 2 - - 0.0
13/05:00am 1.4 -0.8 1.2 99 0.1 N 2 2 1 1 - - 0.0
13/04:50am 1.2 -1.0 1.0 99 0.1 N 2 4 1 2 - - 0.0
13/04:40am 1.2 -1.4 0.9 98 0.1 N 4 4 2 2 - - 0.0
13/04:30am 1.3 -1.3 1.1 99 0.1 N 4 4 2 2 - - 0.0
13/04:20am 1.5 -1.0 1.3 99 0.1 N 4 4 2 2 - - 0.0
13/04:10am 1.3 -0.9 1.1 99 0.1 N 2 4 1 2 - - 0.0
13/04:00am 1.5 -1.0 1.3 99 0.1 N 4 4 2 2 - - 0.0
13/03:50am 1.3 -0.9 1.1 99 0.1 N 2 4 1 2 - - 0.0
13/03:40am 1.4 -0.8 1.1 98 0.1 N 2 4 1 2 - - 0.0
13/03:30am 1.9 -0.6 1.7 99 0.1 N 4 4 2 2 - - 0.0
13/03:20am 2.5 0.5 2.3 99 0.1 N 2 4 1 2 - - 0.0
13/03:10am 2.3 0.3 2.1 99 0.1 N 2 4 1 2 - - 0.0
13/03:00am 2.5 0.5 2.3 99 0.1 N 2 4 1 2 - - 0.0
13/02:50am 2.5 0.5 2.2 98 0.1 N 2 4 1 2 - - 0.0
13/02:40am 2.7 0.7 2.5 99 0.1 N 2 4 1 2 - - 0.0
13/02:30am 2.6 0.6 2.4 99 0.1 N 2 4 1 2 - - 0.0
13/02:20am 2.9 0.6 2.6 98 0.1 N 4 6 2 3 - - 0.0
13/02:10am 3.2 1.3 3.0 99 0.1 N 2 4 1 2 - - 0.0
13/02:00am 3.1 1.2 2.9 99 0.1 N 2 4 1 2 - - 0.0
13/01:50am 2.9 1.0 2.7 99 0.1 N 2 6 1 3 - - 0.0
13/01:40am 3.4 1.2 3.1 98 0.1 N 4 6 2 3 - - 0.0
13/01:30am 4.0 2.3 3.8 99 0.1 N 2 4 1 2 - - 0.0
13/01:20am 3.7 1.5 3.4 98 0.1 N 4 6 2 3 - - 0.0
13/01:10am 4.0 2.3 3.8 99 0.1 N 2 4 1 2 - - 0.0
13/01:00am 3.7 1.5 3.4 98 0.1 N 4 6 2 3 - - 0.0
13/12:50am 3.9 2.1 3.7 99 0.1 N 2 4 1 2 - - 0.0
13/12:40am 4.6 3.0 4.4 99 0.1 N 2 4 1 2 - - 0.0
13/12:30am 4.4 2.7 4.2 99 0.1 N 2 4 1 2 - - 0.0
13/12:20am 4.8 2.8 4.6 99 0.1 N 4 4 2 2 - - 0.0
13/12:10am 5.4 3.9 5.1 98 0.1 N 2 4 1 2 - - 0.0
13/12:00am 4.8 2.8 4.5 98 0.1 N 4 4 2 2 - - 0.0
 
Date/Time
EST
Temp
°C
App
Temp
°C
Dew
Point
°C
Rel
Hum
%
Delta-T
°C
Wind Press
QNH
hPa
Press
MSL
hPa
Rain since
9am
mm
Dir  Spd
km/h
Gust
km/h
Spd
kts
Gust
kts
12/11:50pm 4.9 3.3 4.6 98 0.1 N 2 4 1 2 - - 0.0
12/11:40pm 5.0 3.1 4.7 98 0.1 N 4 6 2 3 - - 0.0
12/11:30pm 4.9 3.3 4.6 98 0.1 N 2 4 1 2 - - 0.0
12/11:20pm 5.0 3.4 4.7 98 0.1 N 2 4 1 2 - - 0.0
12/11:10pm 5.5 4.0 5.2 98 0.1 N 2 4 1 2 - - 0.0
12/11:00pm 5.8 4.0 5.5 98 0.1 N 4 6 2 3 - - 0.0
12/10:50pm 5.9 4.1 5.6 98 0.1 N 4 6 2 3 - - 0.0
12/10:40pm 6.1 4.8 5.8 98 0.1 N 2 4 1 2 - - 0.0
12/10:30pm 6.1 4.8 5.8 98 0.1 N 2 4 1 2 - - 0.0
12/10:20pm 6.3 5.0 6.0 98 0.1 N 2 4 1 2 - - 0.0
12/10:10pm 6.5 5.2 6.2 98 0.1 N 2 4 1 2 - - 0.0
12/10:00pm 6.5 5.2 6.1 97 0.2 N 2 4 1 2 - - 0.0
12/09:50pm 6.5 5.2 6.1 97 0.2 N 2 4 1 2 - - 0.0
12/09:40pm 6.7 5.1 6.3 97 0.2 N 4 6 2 3 - - 0.0
12/09:30pm 6.9 5.7 6.5 97 0.2 N 2 4 1 2 - - 0.0
12/09:20pm 6.9 5.3 6.5 97 0.2 N 4 7 2 4 - - 0.0
12/09:10pm 7.5 6.1 7.1 97 0.2 N 4 6 2 3 - - 0.0
12/09:00pm 7.1 6.0 6.7 97 0.2 N 2 4 1 2 - - 0.0
12/08:50pm 7.2 6.1 6.8 97 0.2 N 2 4 1 2 - - 0.0
12/08:40pm 7.3 6.2 6.8 97 0.2 N 2 4 1 2 - - 0.0
12/08:30pm 7.4 6.3 6.9 97 0.2 N 2 4 1 2 - - 0.0
12/08:20pm 7.7 6.6 7.1 96 0.3 N 2 4 1 2 - - 0.0
12/08:10pm 7.8 6.7 7.1 95 0.3 N 2 4 1 2 - - 0.0
12/08:00pm 8.1 6.7 7.3 95 0.4 N 4 4 2 2 - - 0.0
12/07:50pm 8.7 7.5 7.9 95 0.4 N 4 4 2 2 - - 0.0
12/07:40pm 9.0 8.2 8.0 93 0.5 N 2 4 1 2 - - 0.0
12/07:30pm 9.3 8.5 8.1 92 0.6 N 2 2 1 1 - - 0.0
12/07:20pm 9.6 8.4 8.1 90 0.7 NNW 4 4 2 2 - - 0.0
12/07:10pm 9.8 8.9 7.9 88 0.9 N 2 2 1 1 - - 0.0
12/07:00pm 9.9 9.1 8.0 88 0.9 N 2 2 1 1 - - 0.0
12/06:50pm 10.1 9.7 8.3 88 0.9 CALM 0 0 0 0 - - 0.0
12/06:40pm 10.2 9.8 8.4 89 0.9 CALM 0 2 0 1 - - 0.0
12/06:30pm 10.3 9.5 8.3 87 1.0 N 2 4 1 2 - - 0.0
12/06:20pm 10.4 9.6 8.3 87 1.0 N 2 2 1 1 - - 0.0
12/06:10pm 10.5 9.3 7.9 84 1.3 N 4 6 2 3 - - 0.0
12/06:00pm 10.5 9.7 8.1 85 1.2 N 2 4 1 2 - - 0.0
12/05:50pm 10.7 10.1 8.8 88 0.9 N 2 4 1 2 - - 0.0
12/05:40pm 11.0 10.5 9.2 89 0.9 N 2 4 1 2 - - 0.0
12/05:30pm 11.3 10.5 9.6 89 0.9 N 4 4 2 2 - - 0.0
12/05:20pm 12.0 11.2 9.6 85 1.2 N 4 6 2 3 - - 0.0
12/05:10pm 12.4 12.1 8.8 79 1.8 CALM 0 2 0 1 - - 0.0
12/05:00pm 12.7 11.9 8.1 73 2.3 N 2 4 1 2 - - 0.0
12/04:50pm 13.1 12.3 8.0 71 2.5 N 2 4 1 2 - - 0.0
12/04:40pm 13.5 12.5 7.3 66 3.0 N 2 4 1 2 - - 0.0
12/04:30pm 14.0 12.8 8.0 67 3.0 N 4 7 2 4 - - 0.0
12/04:20pm 14.5 12.6 6.6 59 3.8 NNW 6 11 3 6 - - 0.0
12/04:10pm 15.4 13.6 7.1 57 4.1 NNW 6 7 3 4 - - 0.0
12/04:00pm 15.6 14.2 7.3 57 4.1 NNW 4 7 2 4 - - 0.0
12/03:50pm 15.5 13.6 6.9 56 4.2 N 6 7 3 4 - - 0.0
12/03:40pm 15.6 13.6 6.3 54 4.5 NNW 6 9 3 5 - - 0.0
12/03:30pm 15.5 13.6 6.7 55 4.3 N 6 7 3 4 - - 0.0
12/03:20pm 15.3 13.4 6.6 56 4.2 N 6 9 3 5 - - 0.0
12/03:10pm 15.4 13.9 6.8 56 4.2 N 4 6 2 3 - - 0.0
12/03:00pm 15.7 14.1 6.5 54 4.5 NNW 4 6 2 3 - - 0.0
12/02:50pm 15.5 13.9 6.4 54 4.4 NNW 4 6 2 3 - - 0.0
12/02:40pm 14.9 13.5 7.3 60 3.7 N 4 6 2 3 - - 0.0
12/02:30pm 14.8 12.9 6.9 59 3.9 N 6 6 3 3 - - 0.0
12/02:20pm 14.9 13.8 8.4 65 3.3 NNW 4 7 2 4 - - 0.0
12/02:10pm 14.9 13.6 7.6 61 3.6 N 4 6 2 3 - - 0.0
12/02:00pm 14.6 13.1 8.5 67 3.1 N 6 7 3 4 - - 0.0
12/01:50pm 14.4 13.1 9.3 71 2.6 N 6 7 3 4 - - 0.0
12/01:40pm 14.3 13.0 9.2 71 2.6 NNW 6 7 3 4 - - 0.0
12/01:30pm 13.8 12.8 8.8 72 2.5 NNW 4 6 2 3 - - 0.0
12/01:20pm 13.1 12.3 9.5 79 1.8 N 4 6 2 3 - - 0.0
12/01:10pm 12.4 11.5 9.3 81 1.6 N 4 6 2 3 - - 0.0
12/01:00pm 12.1 11.2 9.3 83 1.4 N 4 6 2 3 - - 0.0
12/12:50pm 11.8 10.8 8.8 82 1.5 NNW 4 6 2 3 - - 0.0
12/12:40pm 11.5 10.6 9.3 86 1.1 N 4 4 2 2 - - 0.0
12/12:30pm 10.9 9.9 8.8 87 1.0 N 4 4 2 2 - - 0.0
12/12:20pm 10.7 10.1 8.9 89 0.9 N 2 4 1 2 - - 0.0
12/12:10pm 10.5 9.9 9.1 91 0.7 N 2 4 1 2 - - 0.0
12/12:00pm 10.3 9.3 9.0 92 0.6 N 4 4 2 2 - - 0.0
12/11:50am 10.2 9.6 8.8 91 0.7 N 2 4 1 2 - - 0.0
12/11:40am 10.0 9.4 8.9 93 0.5 N 2 4 1 2 - - 0.0
12/11:30am 10.0 9.5 9.2 95 0.4 N 2 4 1 2 - - 0.0
12/11:20am 9.8 9.2 9.1 95 0.3 N 2 4 1 2 - - 0.0
12/11:10am 9.4 8.8 9.0 97 0.2 N 2 4 1 2 - - 0.0
12/11:00am 8.9 7.8 8.6 98 0.1 N 4 6 2 3 - - 0.0
12/10:50am 8.7 7.6 8.4 98 0.1 N 4 6 2 3 - - 0.0
12/10:40am 8.3 7.5 8.1 99 0.1 N 2 2 1 1 - - 0.0
12/10:30am 8.0 7.5 7.8 99 0.1 CALM 0 2 0 1 - - 0.0
12/10:20am 7.8 6.9 7.6 99 0.1 N 2 2 1 1 - - 0.0
12/10:10am 7.6 6.6 7.4 99 0.1 N 2 2 1 1 - - 0.0
12/10:00am 7.4 6.8 7.2 99 0.1 CALM 0 2 0 1 - - 0.0
12/09:50am 7.1 6.0 6.9 99 0.1 N 2 2 1 1 - - 0.0
12/09:40am 7.1 6.0 6.9 99 0.1 N 2 4 1 2 - - 0.0
12/09:30am 7.0 5.9 6.8 99 0.1 NNW 2 4 1 2 - - 0.0
12/09:20am 6.8 5.6 6.5 98 0.1 NNW 2 4 1 2 - - 0.0
12/09:10am 6.5 5.3 6.3 99 0.1 N 2 4 1 2 - - 0.0
12/09:00am 6.2 4.9 6.0 99 0.1 N 2 4 1 2 - - 0.0
12/08:50am 5.9 4.5 5.7 99 0.1 N 2 4 1 2 - - 0.0
12/08:40am 5.8 4.0 5.6 99 0.1 N 4 4 2 2 - - 0.0
12/08:30am 5.9 4.5 5.6 98 0.1 N 2 4 1 2 - - 0.0
12/08:20am 5.6 4.6 5.4 99 0.1 CALM 0 2 0 1 - - 0.0
12/08:10am 5.5 4.4 5.3 99 0.1 CALM 0 2 0 1 - - 0.0
12/08:00am 5.4 3.9 5.2 99 0.1 N 2 4 1 2 - - 0.0
12/07:50am 5.4 3.9 5.2 99 0.1 N 2 4 1 2 - - 0.0
12/07:40am 5.5 4.0 5.2 98 0.1 N 2 4 1 2 - - 0.0
12/07:30am 5.4 4.3 5.2 99 0.1 CALM 0 4 0 2 - - 0.0
12/07:20am 5.3 3.8 5.1 99 0.1 N 2 2 1 1 - - 0.0
12/07:10am 5.3 3.8 5.1 99 0.1 N 2 4 1 2 - - 0.0
12/07:00am 5.3 3.8 5.0 98 0.1 NNW 2 2 1 1 - - 0.0
12/06:50am 5.3 3.8 5.1 99 0.1 N 2 4 1 2 - - 0.0
12/06:40am 5.3 3.8 5.1 99 0.1 N 2 2 1 1 - - 0.0
12/06:30am 5.3 3.8 5.1 99 0.1 N 2 4 1 2 - - 0.0
12/06:20am 5.3 3.8 5.1 99 0.1 N 2 4 1 2 - - 0.0
12/06:10am 5.3 4.2 5.0 98 0.1 CALM 0 2 0 1 - - 0.0
12/06:00am 5.3 3.8 5.1 99 0.1 N 2 4 1 2 - - 0.0
12/05:50am 5.3 3.8 5.0 98 0.1 N 2 4 1 2 - - 0.0
12/05:40am 5.2 3.7 5.0 99 0.1 N 2 4 1 2 - - 0.0
12/05:30am 5.2 3.7 5.0 99 0.1 N 2 2 1 1 - - 0.0
12/05:20am 5.2 3.7 4.9 98 0.1 N 2 4 1 2 - - 0.0
12/05:10am 5.1 3.6 4.9 99 0.1 N 2 4 1 2 - - 0.0
12/05:00am 5.1 3.6 4.9 99 0.1 N 2 4 1 2 - - 0.0
12/04:50am 5.0 3.5 4.8 99 0.1 N 2 2 1 1 - - 0.0
12/04:40am 5.0 3.4 4.7 98 0.1 N 2 4 1 2 - - 0.0
12/04:30am 5.0 3.5 4.8 99 0.1 N 2 4 1 2 - - 0.0
12/04:20am 5.0 3.5 4.8 99 0.1 N 2 4 1 2 - - 0.0
12/04:10am 5.1 3.6 4.8 98 0.1 N 2 4 1 2 - - 0.0
12/04:00am 5.0 3.5 4.8 99 0.1 N 2 2 1 1 - - 0.0
12/03:50am 5.1 3.9 4.8 98 0.1 CALM 0 2 0 1 - - 0.0
12/03:40am 5.0 3.8 4.8 99 0.1 CALM 0 2 0 1 - - 0.0
12/03:30am 4.9 3.7 4.6 98 0.1 CALM 0 2 0 1 - - 0.0
12/03:20am 4.9 3.3 4.6 98 0.1 N 2 4 1 2 - - 0.0
12/03:10am 4.8 3.2 4.5 98 0.1 N 2 4 1 2 - - 0.0
12/03:00am 4.9 3.3 4.6 98 0.1 N 2 2 1 1 - - 0.0
12/02:50am 4.9 3.3 4.6 98 0.1 N 2 4 1 2 - - 0.0
12/02:40am 5.0 3.5 4.8 99 0.1 N 2 4 1 2 - - 0.0
12/02:30am 4.9 3.7 4.6 98 0.1 CALM 0 2 0 1 - - 0.0
12/02:20am 4.8 3.2 4.6 99 0.1 N 2 4 1 2 - - 0.0
12/02:10am 4.7 3.1 4.4 98 0.1 N 2 2 1 1 - - 0.0
12/02:00am 4.6 3.0 4.4 99 0.1 N 2 4 1 2 - - 0.0
12/01:50am 4.9 2.9 4.6 98 0.1 N 4 4 2 2 - - 0.0
12/01:40am 4.9 3.3 4.6 98 0.1 N 2 2 1 1 - - 0.0
12/01:30am 4.8 3.2 4.5 98 0.1 N 2 2 1 1 - - 0.0
12/01:20am 4.7 3.1 4.4 98 0.1 N 2 2 1 1 - - 0.0
12/01:10am 4.6 3.0 4.3 98 0.1 N 2 4 1 2 - - 0.0
12/01:00am 4.7 3.1 4.4 98 0.1 N 2 4 1 2 - - 0.0
12/12:50am 4.6 3.0 4.3 98 0.1 N 2 4 1 2 - - 0.0
12/12:40am 4.6 3.0 4.3 98 0.1 N 2 4 1 2 - - 0.0
12/12:30am 4.7 3.1 4.4 98 0.1 N 2 4 1 2 - - 0.0
12/12:20am 4.8 3.6 4.5 98 0.1 CALM 0 2 0 1 - - 0.0
12/12:10am 4.8 3.2 4.5 98 0.1 N 2 4 1 2 - - 0.0
12/12:00am 5.0 3.8 4.7 98 0.1 CALM 0 2 0 1 - - 0.0
 
Date/Time
EST
Temp
°C
App
Temp
°C
Dew
Point
°C
Rel
Hum
%
Delta-T
°C
Wind Press
QNH
hPa
Press
MSL
hPa
Rain since
9am
mm
Dir  Spd
km/h
Gust
km/h
Spd
kts
Gust
kts
11/11:50pm 5.3 3.8 4.9 97 0.2 N 2 4 1 2 - - 0.0
11/11:40pm 5.4 3.5 5.1 98 0.1 N 4 6 2 3 - - 0.0
11/11:30pm 5.6 4.1 5.2 97 0.2 N 2 4 1 2 - - 0.0
11/11:20pm 6.0 4.6 5.6 97 0.2 N 2 4 1 2 - - 0.0
11/11:10pm 6.3 5.0 5.9 97 0.2 N 2 4 1 2 - - 0.0
11/11:00pm 6.3 5.0 5.9 97 0.2 N 2 4 1 2 - - 0.0
11/10:50pm 6.7 5.1 6.3 97 0.2 N 4 4 2 2 - - 0.0
11/10:40pm 6.8 5.2 6.4 97 0.2 NNW 4 4 2 2 - - 0.0
11/10:30pm 7.0 5.5 6.6 97 0.2 N 4 4 2 2 - - 0.0
11/10:20pm 7.1 5.6 6.7 97 0.2 N 4 4 2 2 - - 0.0
11/10:10pm 7.4 6.3 6.9 97 0.2 N 2 4 1 2 - - 0.0
11/10:00pm 7.5 6.4 7.0 97 0.2 N 2 4 1 2 - - 0.0
11/09:50pm 7.6 6.2 7.1 97 0.2 N 4 4 2 2 - - 0.0
11/09:40pm 7.5 6.4 7.1 97 0.2 N 2 2 1 1 - - 0.0
11/09:30pm 7.5 6.8 7.0 97 0.2 CALM 0 0 0 0 - - 0.0
11/09:20pm 7.6 6.9 7.1 97 0.2 CALM 0 4 0 2 - - 0.0
11/09:10pm 7.6 6.2 7.1 97 0.2 N 4 4 2 2 - - 0.0
11/09:00pm 7.7 6.7 7.2 97 0.2 N 2 4 1 2 - - 0.0
11/08:50pm 7.8 6.4 7.4 97 0.2 N 4 6 2 3 - - 0.0
11/08:40pm 7.9 6.6 7.5 97 0.2 N 4 4 2 2 - - 0.0
11/08:30pm 7.9 6.6 7.5 97 0.2 N 4 6 2 3 - - 0.0
11/08:20pm 8.0 6.7 7.6 97 0.2 N 4 4 2 2 - - 0.0
11/08:10pm 8.1 7.2 7.6 97 0.2 N 2 4 1 2 - - 0.0
11/08:00pm 8.1 6.8 7.7 97 0.2 N 4 4 2 2 - - 0.0
11/07:50pm 8.1 7.2 7.6 97 0.2 N 2 4 1 2 - - 0.0
11/07:40pm 8.2 7.3 7.7 97 0.2 N 2 4 1 2 - - 0.0
11/07:30pm 8.4 7.5 7.8 96 0.3 N 2 2 1 1 - - 0.0
11/07:20pm 8.5 8.0 7.9 96 0.3 CALM 0 2 0 1 - - 0.0
11/07:10pm 8.5 8.0 7.9 96 0.3 CALM 0 2 0 1 - - 0.0
11/07:00pm 8.5 7.6 7.9 96 0.3 N 2 2 1 1 - - 0.0
11/06:50pm 8.6 8.1 8.0 96 0.3 CALM 0 0 0 0 - - 0.0
11/06:40pm 8.7 8.2 8.0 95 0.3 CALM 0 0 0 0 - - 0.0
11/06:30pm 8.8 8.4 8.1 95 0.3 CALM 0 2 0 1 - - 0.0
11/06:20pm 8.9 8.4 8.0 94 0.4 CALM 0 2 0 1 - - 0.0
11/06:10pm 9.0 8.2 8.1 94 0.4 N 2 4 1 2 - - 0.0
11/06:00pm 9.1 8.3 8.1 93 0.5 N 2 4 1 2 - - 0.0
11/05:50pm 9.2 8.4 8.0 92 0.6 N 2 4 1 2 - - 0.0
11/05:40pm 9.3 8.5 8.3 93 0.5 N 2 4 1 2 - - 0.0
11/05:30pm 9.6 8.9 8.4 92 0.6 N 2 4 1 2 - - 0.0
11/05:20pm 9.8 9.0 8.2 90 0.8 N 2 4 1 2 - - 0.0
11/05:10pm 10.0 9.2 8.2 88 0.9 N 2 2 1 1 - - 0.0
11/05:00pm 10.2 9.5 8.4 89 0.9 NNW 2 2 1 1 - - 0.0
11/04:50pm 10.5 9.7 8.3 86 1.1 N 2 4 1 2 - - 0.0
11/04:40pm 10.9 9.7 8.2 83 1.3 N 4 6 2 3 - - 0.0
11/04:30pm 11.3 9.8 6.6 73 2.2 N 4 4 2 2 - - 0.0
11/04:20pm 11.4 10.5 7.7 78 1.8 N 2 4 1 2 - - 0.0
11/04:10pm 11.5 9.9 6.4 71 2.4 N 4 6 2 3 - - 0.0
11/04:00pm 11.8 10.8 7.3 74 2.2 N 2 4 1 2 - - 0.0
11/03:50pm 11.8 10.6 6.3 69 2.6 N 2 4 1 2 - - 0.0
11/03:40pm 11.6 10.6 7.2 74 2.1 N 2 4 1 2 - - 0.0
11/03:30pm 11.7 10.6 6.9 72 2.3 N 2 4 1 2 - - 0.0
11/03:20pm 11.9 10.7 6.6 70 2.5 N 2 4 1 2 - - 0.0
11/03:10pm 12.1 10.8 6.1 67 2.8 N 2 4 1 2 - - 0.0
11/03:00pm 12.2 10.2 6.3 67 2.8 N 6 7 3 4 - - 0.0
11/02:50pm 12.5 10.8 6.0 64 3.1 NNW 4 6 2 3 - - 0.0
11/02:40pm 12.6 10.8 5.3 61 3.4 N 4 4 2 2 - - 0.0
11/02:30pm 12.8 11.0 5.3 60 3.5 N 4 6 2 3 - - 0.0
11/02:20pm 12.8 11.2 4.7 58 3.7 N 2 4 1 2 - - 0.0
11/02:10pm 13.0 11.1 4.7 57 3.8 NNW 4 4 2 2 - - 0.0
11/02:00pm 13.1 11.2 4.7 56 3.9 N 4 6 2 3 - - 0.0
11/01:50pm 13.1 11.1 4.5 56 3.9 N 4 6 2 3 - - 0.0
11/01:40pm 13.1 11.1 4.3 55 4.0 N 4 6 2 3 - - 0.0
11/01:30pm 13.1 11.5 4.5 56 3.9 NNW 2 6 1 3 - - 0.0
11/01:20pm 13.2 11.1 4.0 53 4.2 N 4 7 2 4 - - 0.0
11/01:10pm 13.5 11.1 4.3 53 4.2 N 6 9 3 5 - - 0.0
11/01:00pm 13.5 10.9 4.2 53 4.2 N 7 9 4 5 - - 0.0
11/12:50pm 13.3 10.3 4.0 53 4.2 N 9 9 5 5 - - 0.0
11/12:40pm 12.3 9.9 4.5 59 3.6 N 6 9 3 5 - - 0.0
11/12:30pm 12.0 9.5 3.8 57 3.7 NNW 6 7 3 4 - - 0.0
11/12:20pm 11.8 9.6 3.3 56 3.8 N 4 7 2 4 - - 0.0
11/12:10pm 11.6 9.1 3.8 59 3.5 N 6 7 3 4 - - 0.0
11/12:00pm 11.6 8.9 3.6 58 3.5 N 7 11 4 6 - - 0.0
11/11:50am 11.6 8.5 3.4 57 3.6 N 9 13 5 7 - - 0.0
11/11:40am 11.4 8.6 3.2 57 3.6 N 7 11 4 6 - - 0.0
11/11:30am 11.1 8.4 3.5 59 3.3 N 7 9 4 5 - - 0.0
11/11:20am 10.9 8.1 3.1 58 3.4 N 7 11 4 6 - - 0.0
11/11:10am 10.4 7.8 3.2 61 3.1 N 6 7 3 4 - - 0.0
11/11:00am 10.2 7.6 3.0 61 3.1 N 6 7 3 4 - - 0.0
11/10:50am 9.8 6.6 3.1 63 2.9 N 9 13 5 7 - - 0.0
11/10:40am 8.5 5.7 2.9 68 2.4 N 7 11 4 6 - - 0.0
11/10:30am 6.8 4.3 3.7 80 1.3 N 6 7 3 4 - - 0.0
11/10:20am 5.2 3.0 3.3 87 0.8 N 4 6 2 3 - - 0.0
11/10:10am 4.6 2.0 3.0 89 0.7 N 6 7 3 4 - - 0.0
11/10:00am 4.2 2.3 2.6 89 0.6 NNW 2 7 1 4 - - 0.0
11/09:50am 3.8 1.8 2.5 91 0.5 N 2 4 1 2 - - 0.0
11/09:40am 3.6 1.2 2.3 91 0.5 N 4 6 2 3 - - 0.0
11/09:30am 3.5 1.2 2.5 93 0.4 N 4 6 2 3 - - 0.0
11/09:20am 3.1 1.1 2.2 94 0.4 N 2 4 1 2 - - 0.0
11/09:10am 2.9 0.9 2.1 94 0.3 N 2 4 1 2 - - 0.0
11/09:00am 2.8 0.4 2.0 94 0.3 N 4 6 2 3 - - 0.0
11/08:50am 2.7 0.3 1.9 94 0.3 N 4 4 2 2 - - 0.0
11/08:40am 2.4 -0.1 1.6 94 0.3 N 4 6 2 3 - - 0.0
11/08:30am 2.6 0.1 1.7 94 0.3 N 4 7 2 4 - - 0.0
11/08:20am 2.4 -0.1 1.5 94 0.3 N 4 6 2 3 - - 0.0
11/08:10am 2.3 0.2 1.5 94 0.3 N 2 4 1 2 - - 0.0
11/08:00am 2.1 0.0 1.5 96 0.2 N 2 4 1 2 - - 0.0

Other formats

Comma delimited format used in spreadsheet applications
http://www.bom.gov.au/fwo/IDT60801/IDT60801.99141.axf

JavaScript Object Notation format (JSON) in row-major order
http://www.bom.gov.au/fwo/IDT60801/IDT60801.99141.json

Data quality

Most of these data are generated automatically and are frequently updated. Quality checks on data are not normally performed. It is possible for incorrect values to appear. Refer to information at About Latest Weather Observations and please check the disclaimer before using these data.